createdAt,value
2019-01-22T00:14:30.002Z,93628.53
2019-01-22T00:30:03.425Z,93628.53
2019-01-22T00:45:37.795Z,93630.62
2019-01-22T01:01:11.482Z,93615.95
2019-01-22T01:16:44.683Z,93604.34
2019-01-22T01:32:17.747Z,93582.22
2019-01-22T01:47:51.316Z,93562.05
2019-01-22T02:03:23.856Z,93540.70
2019-01-22T02:19:03.642Z,93515.63
2019-01-22T02:34:45.073Z,93506.20
2019-01-22T02:50:44.108Z,93502.97
2019-01-22T03:06:24.237Z,93488.17
2019-01-22T03:22:06.793Z,93458.98
2019-01-22T03:37:47.020Z,93465.16
2019-01-22T03:53:26.093Z,93462.73
2019-01-22T04:08:59.701Z,93464.41
2019-01-22T04:24:47.095Z,93465.62
2019-01-22T04:40:28.163Z,93468.09
2019-01-22T05:12:31.137Z,93458.67
2019-01-22T05:28:13.225Z,93456.62
2019-01-22T05:43:57.574Z,93439.36
2019-01-22T05:59:45.741Z,93428.67
2019-01-22T06:31:38.388Z,93416.72
2019-01-22T06:47:19.783Z,93408.86
2019-01-22T07:03:02.567Z,93436.66
2019-01-22T07:35:08.090Z,93412.09
2019-01-22T07:50:45.186Z,93397.14
2019-01-22T08:06:20.745Z,93392.64
2019-01-22T08:22:18.704Z,93381.58
2019-01-22T08:38:01.876Z,93387.70
2019-01-22T09:09:53.120Z,93378.34
2019-01-22T09:25:33.343Z,93350.58
2019-01-22T09:41:06.360Z,93329.30
2019-01-22T09:56:39.027Z,93308.39
2019-01-22T10:12:12.085Z,93295.67
2019-01-22T10:27:45.293Z,93268.73
2019-01-22T10:43:18.785Z,93251.09
2019-01-22T10:58:51.785Z,93244.03
2019-01-22T11:14:24.813Z,93226.90
2019-01-22T11:29:57.810Z,93196.91
2019-01-22T11:45:31.200Z,93159.27
2019-01-22T12:01:04.487Z,93175.02
2019-01-22T12:16:38.206Z,93130.53
2019-01-22T12:32:11.422Z,93122.72
2019-01-22T12:47:44.613Z,93099.78
2019-01-22T13:03:17.657Z,93070.36
2019-01-22T13:18:50.870Z,93067.12
2019-01-22T13:34:24.145Z,93060.97
2019-01-22T13:49:57.291Z,93036.05
2019-01-22T14:05:31.614Z,93020.47
2019-01-22T14:21:04.786Z,92998.03
2019-01-22T14:36:38.279Z,92984.21
2019-01-22T14:52:11.598Z,92987.52
2019-01-22T15:07:44.521Z,92962.98
2019-01-22T15:23:17.823Z,92945.84
2019-01-22T15:38:51.537Z,92922.13
2019-01-22T15:54:24.191Z,92909.79
2019-01-22T16:09:57.386Z,92901.20
2019-01-22T16:25:31.608Z,92875.35
2019-01-22T16:41:04.676Z,92859.78
2019-01-22T16:56:37.935Z,92854.86
2019-01-22T17:12:10.992Z,92848.34
2019-01-22T17:27:44.231Z,92829.32
2019-01-22T17:43:17.293Z,92822.34
2019-01-22T17:58:50.872Z,92803.68
2019-01-22T18:14:23.912Z,92810.97
2019-01-22T18:29:57.505Z,92790.03
2019-01-22T18:45:32.492Z,92757.23
2019-01-22T19:01:05.625Z,92745.51
2019-01-22T19:16:39.537Z,92739.69
2019-01-22T19:32:14.748Z,92745.03
2019-01-22T19:47:47.949Z,92722.35
2019-01-22T20:03:20.974Z,92693.91
2019-01-22T20:18:54.189Z,92670.91
2019-01-22T20:34:27.320Z,92649.45
2019-01-22T20:50:00.656Z,92652.86
2019-01-22T21:05:36.187Z,92665.16
2019-01-22T21:21:09.921Z,92652.89
2019-01-22T21:36:43.620Z,92603.66
2019-01-22T21:52:16.622Z,92590.53
2019-01-22T22:07:49.380Z,92596.06
2019-01-22T22:23:22.459Z,92569.85
2019-01-22T22:38:55.456Z,92555.70
2019-01-22T22:54:28.428Z,92496.33
2019-01-22T23:10:01.641Z,92473.70
2019-01-22T23:25:34.853Z,92467.58
2019-01-22T23:41:08.317Z,92455.24
2019-01-22T23:56:41.325Z,92461.31
